createdAt,value
2023-03-03T00:01:27.413Z,100.00
2023-03-03T00:03:55.320Z,100.00
2023-03-03T00:06:24.420Z,100.00
2023-03-03T00:08:52.302Z,100.00
2023-03-03T00:11:20.026Z,100.00
2023-03-03T00:13:51.611Z,100.00
2023-03-03T00:16:25.461Z,100.00
2023-03-03T00:18:54.036Z,100.00
2023-03-03T00:21:29.022Z,100.00
2023-03-03T00:24:02.833Z,100.00
2023-03-03T00:26:36.513Z,100.00
2023-03-03T00:29:25.377Z,100.00
2023-03-03T00:31:52.919Z,100.00
2023-03-03T00:34:26.657Z,100.00
2023-03-03T00:36:56.021Z,100.00
2023-03-03T00:39:30.480Z,100.00
2023-03-03T00:42:00.423Z,100.00
2023-03-03T00:44:41.271Z,100.00
2023-03-03T00:47:30.717Z,100.00
2023-03-03T00:50:28.569Z,99.31
2023-03-03T00:53:03.364Z,100.00
2023-03-03T00:55:32.014Z,100.00
2023-03-03T00:57:59.706Z,100.00
2023-03-03T01:00:29.176Z,100.00
2023-03-03T01:02:56.996Z,100.00
2023-03-03T01:05:24.546Z,99.19
2023-03-03T01:07:52.029Z,100.00
2023-03-03T01:10:19.673Z,100.00
2023-03-03T01:12:47.302Z,100.00
2023-03-03T01:15:16.011Z,100.00
2023-03-03T01:17:44.860Z,100.00
2023-03-03T01:20:14.989Z,100.00
2023-03-03T01:22:42.521Z,100.00
2023-03-03T01:25:10.938Z,100.00
2023-03-03T01:27:38.443Z,100.00
2023-03-03T01:30:07.239Z,100.00
2023-03-03T01:32:34.758Z,100.00
2023-03-03T01:35:03.586Z,100.00
2023-03-03T01:37:31.128Z,99.50
2023-03-03T01:39:58.651Z,99.67
2023-03-03T01:42:29.134Z,98.00
2023-03-03T01:45:22.803Z,94.52
2023-03-03T01:47:54.753Z,94.02
2023-03-03T01:50:32.728Z,95.67
2023-03-03T01:53:03.303Z,98.22
2023-03-03T01:55:35.417Z,99.21
2023-03-03T01:58:08.897Z,96.47
2023-03-03T02:00:39.038Z,95.82
2023-03-03T02:03:06.727Z,92.87
2023-03-03T02:05:36.896Z,93.97
2023-03-03T02:08:05.231Z,93.22
2023-03-03T02:10:33.020Z,90.31
2023-03-03T02:13:00.719Z,88.25
2023-03-03T02:15:32.154Z,91.77
2023-03-03T02:18:04.162Z,90.46
2023-03-03T02:20:45.205Z,83.90
2023-03-03T02:23:18.846Z,88.38
2023-03-03T02:25:54.149Z,85.54
2023-03-03T02:28:24.523Z,88.92
2023-03-03T02:30:55.437Z,90.69
2023-03-03T02:33:23.155Z,86.74
2023-03-03T02:35:51.128Z,85.79
2023-03-03T02:38:24.105Z,87.08
2023-03-03T02:41:01.430Z,88.36
2023-03-03T02:43:34.864Z,89.54
2023-03-03T02:46:02.413Z,92.89
2023-03-03T02:48:29.916Z,91.57
2023-03-03T02:50:57.394Z,89.08
2023-03-03T02:53:24.872Z,89.65
2023-03-03T02:55:52.342Z,91.96
2023-03-03T02:58:19.913Z,88.44
2023-03-03T03:00:48.820Z,85.83
2023-03-03T03:03:16.326Z,86.52
2023-03-03T03:05:43.790Z,89.62
2023-03-03T03:08:11.283Z,89.83
2023-03-03T03:10:38.929Z,87.13
2023-03-03T03:13:06.419Z,89.91
2023-03-03T03:15:33.893Z,86.06
2023-03-03T03:18:02.727Z,86.21
2023-03-03T03:20:30.481Z,86.64
2023-03-03T03:22:57.985Z,89.58
2023-03-03T03:25:25.579Z,92.60
2023-03-03T03:27:53.057Z,92.81
2023-03-03T03:30:22.453Z,90.68
2023-03-03T03:32:49.949Z,91.34
2023-03-03T03:35:18.993Z,93.91
2023-03-03T03:37:46.510Z,94.62
2023-03-03T03:40:14.364Z,93.27
2023-03-03T03:42:41.901Z,93.33
2023-03-03T03:45:10.199Z,88.35
2023-03-03T03:47:38.100Z,86.33
2023-03-03T03:50:06.264Z,89.58
2023-03-03T03:52:35.047Z,92.41
2023-03-03T03:55:02.562Z,96.19
2023-03-03T03:57:30.033Z,97.69
2023-03-03T03:59:57.733Z,98.78
2023-03-03T04:02:25.341Z,99.96
2023-03-03T04:04:52.902Z,100.00
2023-03-03T04:07:20.356Z,100.00
2023-03-03T04:09:49.242Z,98.62
2023-03-03T04:12:16.709Z,96.17
2023-03-03T04:14:44.208Z,97.79
2023-03-03T04:17:17.123Z,98.67
2023-03-03T04:19:44.589Z,95.58
2023-03-03T04:22:12.594Z,93.87
2023-03-03T04:24:40.187Z,91.14
2023-03-03T04:27:09.602Z,89.70
2023-03-03T04:29:37.305Z,91.15
2023-03-03T04:32:05.014Z,93.12
2023-03-03T04:34:32.523Z,93.81
2023-03-03T04:37:00.019Z,94.16
2023-03-03T04:39:27.558Z,95.76
2023-03-03T04:41:55.083Z,98.69
2023-03-03T04:44:23.869Z,99.43
2023-03-03T04:46:51.359Z,98.67
2023-03-03T04:49:18.825Z,97.37
2023-03-03T04:51:46.283Z,98.85
2023-03-03T04:54:13.769Z,100.00
2023-03-03T04:56:41.321Z,100.00
2023-03-03T04:59:08.789Z,100.00
2023-03-03T05:01:37.790Z,100.00
2023-03-03T05:04:05.323Z,100.00
2023-03-03T05:06:32.806Z,98.42
2023-03-03T05:09:00.332Z,93.79
2023-03-03T05:11:27.830Z,91.02
2023-03-03T05:13:55.305Z,87.21
2023-03-03T05:16:22.838Z,87.27
2023-03-03T05:18:51.641Z,90.28
2023-03-03T05:21:19.110Z,91.77
2023-03-03T05:23:46.558Z,91.93
2023-03-03T05:26:14.177Z,94.40
2023-03-03T05:28:41.626Z,93.88
2023-03-03T05:31:09.150Z,92.52
2023-03-03T05:33:36.712Z,94.43
2023-03-03T05:36:05.872Z,96.50
2023-03-03T05:38:33.331Z,95.83
2023-03-03T05:41:00.809Z,93.73
2023-03-03T05:43:29.150Z,93.85
2023-03-03T05:45:57.594Z,93.05
2023-03-03T05:48:25.335Z,89.34
2023-03-03T05:50:52.869Z,89.04
2023-03-03T05:53:21.662Z,89.03
2023-03-03T05:55:49.386Z,86.57
2023-03-03T05:58:16.888Z,79.96
2023-03-03T06:00:44.342Z,75.81
2023-03-03T06:03:11.858Z,76.84
2023-03-03T06:05:39.390Z,76.25
2023-03-03T06:08:06.953Z,76.83
2023-03-03T06:10:35.778Z,75.62
2023-03-03T06:13:03.345Z,73.61
2023-03-03T06:15:31.043Z,72.07
2023-03-03T06:17:58.562Z,71.34
2023-03-03T06:20:26.132Z,73.07
2023-03-03T06:22:53.908Z,78.34
2023-03-03T06:25:21.516Z,86.95
2023-03-03T06:27:50.411Z,94.98
2023-03-03T06:30:18.915Z,98.40
2023-03-03T06:32:46.731Z,97.28
2023-03-03T06:35:14.438Z,96.71
2023-03-03T06:37:41.914Z,95.16
2023-03-03T06:40:10.710Z,98.64
2023-03-03T06:42:38.290Z,100.00
2023-03-03T06:45:07.981Z,100.00
2023-03-03T06:47:35.471Z,99.55
2023-03-03T06:50:02.958Z,98.94
2023-03-03T06:52:30.408Z,97.31
2023-03-03T06:55:01.810Z,95.86
2023-03-03T06:57:31.646Z,93.51
2023-03-03T07:00:04.206Z,91.44
2023-03-03T07:02:33.022Z,88.71
2023-03-03T07:05:00.500Z,83.16
2023-03-03T07:07:28.082Z,83.17
2023-03-03T07:09:57.450Z,84.38
2023-03-03T07:12:27.732Z,84.35
2023-03-03T07:15:02.402Z,84.29
2023-03-03T07:17:32.764Z,85.60
2023-03-03T07:20:00.206Z,86.39
2023-03-03T07:22:30.162Z,84.54
2023-03-03T07:25:01.728Z,81.80
2023-03-03T07:27:30.879Z,79.42
2023-03-03T07:30:18.966Z,77.35
2023-03-03T07:32:48.482Z,68.66
2023-03-03T07:35:30.529Z,60.54
2023-03-03T07:37:58.400Z,57.76
2023-03-03T07:40:36.516Z,57.50
2023-03-03T07:43:28.394Z,54.95
2023-03-03T07:46:02.769Z,54.86
2023-03-03T07:48:36.974Z,53.69
2023-03-03T07:51:12.496Z,54.46
2023-03-03T07:53:40.341Z,55.62
2023-03-03T07:56:17.958Z,56.21
2023-03-03T07:58:45.439Z,57.31
2023-03-03T08:01:39.695Z,58.92
2023-03-03T08:04:19.306Z,57.48
2023-03-03T08:06:49.493Z,57.51
2023-03-03T08:09:39.518Z,60.07
2023-03-03T08:12:45.083Z,61.13
2023-03-03T08:15:23.141Z,59.11
2023-03-03T08:17:52.181Z,57.05
2023-03-03T08:20:45.070Z,52.54
2023-03-03T08:23:14.003Z,51.23
2023-03-03T08:25:42.677Z,52.55
2023-03-03T08:28:10.456Z,50.96
2023-03-03T08:30:38.034Z,51.14
2023-03-03T08:33:05.556Z,50.82
2023-03-03T08:35:33.111Z,50.42
2023-03-03T08:38:02.110Z,51.43
2023-03-03T08:40:29.805Z,52.15
2023-03-03T08:42:58.093Z,50.38
2023-03-03T08:45:26.287Z,48.72
2023-03-03T08:47:54.394Z,48.55
2023-03-03T08:50:22.136Z,47.40
2023-03-03T08:52:50.134Z,46.78
2023-03-03T08:55:19.506Z,49.17
2023-03-03T08:57:47.028Z,50.22
2023-03-03T09:00:18.021Z,50.11
2023-03-03T09:02:45.521Z,49.52
2023-03-03T09:05:13.959Z,50.32
2023-03-03T09:07:42.414Z,50.35
2023-03-03T09:10:13.409Z,50.27
2023-03-03T09:12:43.611Z,51.35
2023-03-03T09:15:20.163Z,50.62
2023-03-03T09:17:48.668Z,50.43
2023-03-03T09:20:37.324Z,50.83
2023-03-03T09:23:31.156Z,50.57
2023-03-03T09:26:00.201Z,50.83
2023-03-03T09:28:31.559Z,53.85
2023-03-03T09:31:07.371Z,53.54
2023-03-03T09:33:43.376Z,50.73
2023-03-03T09:36:23.808Z,49.54
2023-03-03T09:38:51.526Z,49.59
2023-03-03T09:41:54.902Z,47.69
2023-03-03T09:44:35.433Z,48.60
2023-03-03T09:47:16.778Z,49.47
2023-03-03T09:49:58.127Z,49.08
2023-03-03T09:52:38.501Z,48.76
2023-03-03T09:55:19.064Z,48.06
2023-03-03T09:58:10.489Z,48.47
2023-03-03T10:00:49.058Z,47.43
2023-03-03T10:03:53.939Z,47.05
2023-03-03T10:06:27.978Z,46.02
2023-03-03T10:09:09.801Z,45.45
2023-03-03T10:11:46.089Z,44.45
2023-03-03T10:14:37.897Z,45.92
2023-03-03T10:17:26.814Z,44.56
2023-03-03T10:20:05.620Z,44.21
2023-03-03T10:22:40.257Z,46.93
2023-03-03T10:25:32.220Z,46.34
2023-03-03T10:28:25.261Z,47.91
2023-03-03T10:31:10.397Z,45.21
2023-03-03T10:33:46.964Z,44.11
2023-03-03T10:36:30.821Z,43.67
2023-03-03T10:39:12.734Z,41.46
2023-03-03T10:42:01.384Z,40.85
2023-03-03T10:44:41.893Z,42.79
2023-03-03T10:47:29.550Z,41.85
2023-03-03T10:50:07.444Z,39.57
2023-03-03T10:52:45.057Z,43.93
2023-03-03T10:55:27.890Z,45.98
2023-03-03T10:58:09.513Z,44.19
2023-03-03T11:00:43.870Z,42.81
2023-03-03T11:03:33.845Z,40.86
2023-03-03T11:06:06.108Z,36.85
2023-03-03T11:08:42.208Z,35.16
2023-03-03T11:11:19.149Z,33.81
2023-03-03T11:13:52.111Z,35.16
2023-03-03T11:16:34.731Z,37.46
2023-03-03T11:19:13.283Z,37.71
2023-03-03T11:21:51.932Z,41.19
2023-03-03T11:24:32.389Z,41.45
2023-03-03T11:27:16.339Z,39.82
2023-03-03T11:29:58.278Z,38.84
2023-03-03T11:32:38.982Z,39.97
2023-03-03T11:35:21.495Z,41.76
2023-03-03T11:38:02.616Z,41.40
2023-03-03T11:40:37.279Z,42.60
2023-03-03T11:43:11.462Z,41.18
2023-03-03T11:45:43.599Z,40.48
2023-03-03T11:48:19.310Z,41.57
2023-03-03T11:50:56.336Z,42.07
2023-03-03T11:53:36.334Z,41.62
2023-03-03T11:56:16.312Z,40.27
2023-03-03T11:58:47.797Z,43.21
2023-03-03T12:01:23.448Z,42.76
2023-03-03T12:03:56.792Z,44.97
2023-03-03T12:06:31.468Z,44.77
2023-03-03T12:09:18.642Z,41.33
2023-03-03T12:11:54.188Z,38.80
2023-03-03T12:14:34.207Z,35.91
2023-03-03T12:17:07.468Z,38.12
2023-03-03T12:19:43.334Z,35.35
2023-03-03T12:22:22.835Z,35.74
2023-03-03T12:25:23.618Z,34.99
2023-03-03T12:27:57.712Z,35.03
2023-03-03T12:30:46.048Z,34.16
2023-03-03T12:33:23.360Z,34.86
2023-03-03T12:36:02.549Z,34.04
2023-03-03T12:38:39.527Z,34.48
2023-03-03T12:41:16.401Z,34.78
2023-03-03T12:44:00.778Z,34.60
2023-03-03T12:46:39.920Z,33.29
2023-03-03T12:49:07.530Z,33.40
2023-03-03T12:51:43.990Z,32.92
2023-03-03T12:54:23.745Z,31.37
2023-03-03T12:56:56.882Z,32.43
2023-03-03T12:59:37.245Z,34.41
2023-03-03T13:02:30.945Z,33.86
2023-03-03T13:05:09.060Z,34.51
2023-03-03T13:07:43.038Z,34.66
2023-03-03T13:10:21.417Z,34.68
2023-03-03T13:12:55.305Z,37.08
2023-03-03T13:15:32.202Z,35.55
2023-03-03T13:18:20.594Z,33.76
2023-03-03T13:20:52.480Z,32.80
2023-03-03T13:23:32.905Z,31.71
2023-03-03T13:26:08.787Z,33.40
2023-03-03T13:28:41.963Z,35.29
2023-03-03T13:31:16.116Z,36.30
2023-03-03T13:33:52.064Z,36.10
2023-03-03T13:36:20.039Z,37.73
2023-03-03T13:38:50.307Z,35.64
2023-03-03T13:41:24.952Z,34.48
2023-03-03T13:43:58.308Z,32.96
2023-03-03T13:46:35.752Z,33.31
2023-03-03T13:49:16.938Z,37.67
2023-03-03T13:51:51.432Z,37.38
2023-03-03T13:54:37.346Z,40.88
2023-03-03T13:57:15.610Z,40.13
2023-03-03T13:59:53.862Z,39.59
2023-03-03T14:02:42.435Z,39.27
2023-03-03T14:05:17.343Z,37.86
2023-03-03T14:07:53.289Z,36.19
2023-03-03T14:10:25.474Z,39.22
2023-03-03T14:13:03.348Z,40.92
2023-03-03T14:15:36.770Z,38.24
2023-03-03T14:18:20.852Z,35.54
2023-03-03T14:20:50.994Z,35.27
2023-03-03T14:23:24.046Z,36.42
2023-03-03T14:25:55.838Z,34.64
2023-03-03T14:28:24.960Z,33.64
2023-03-03T14:30:56.180Z,33.12
2023-03-03T14:33:29.564Z,34.22
2023-03-03T14:36:12.308Z,33.21
2023-03-03T14:38:47.778Z,32.35
2023-03-03T14:41:39.651Z,31.46
2023-03-03T14:44:26.837Z,30.59
2023-03-03T14:47:20.522Z,30.98
2023-03-03T14:49:48.323Z,30.16
2023-03-03T14:52:25.530Z,30.59
2023-03-03T14:54:54.844Z,29.82
2023-03-03T14:57:30.310Z,30.36
2023-03-03T15:00:06.832Z,30.03
2023-03-03T15:02:42.266Z,30.62
2023-03-03T15:05:18.239Z,31.30
2023-03-03T15:07:46.888Z,32.30
2023-03-03T15:10:27.030Z,33.47
2023-03-03T15:12:54.716Z,35.57
2023-03-03T15:15:23.745Z,36.95
2023-03-03T15:18:01.220Z,36.57
2023-03-03T15:20:38.050Z,36.63
2023-03-03T15:23:19.543Z,37.56
2023-03-03T15:25:54.654Z,38.44
2023-03-03T15:28:33.253Z,38.64
2023-03-03T15:31:06.757Z,37.77
2023-03-03T15:33:44.030Z,37.60
2023-03-03T15:36:21.514Z,40.36
2023-03-03T15:38:59.814Z,40.80
2023-03-03T15:41:38.208Z,40.46
2023-03-03T15:44:17.564Z,40.37
2023-03-03T15:47:14.161Z,39.84
2023-03-03T15:50:03.706Z,41.35
2023-03-03T15:52:41.976Z,42.38
2023-03-03T15:55:27.529Z,40.07
2023-03-03T15:58:12.876Z,41.54
2023-03-03T16:00:55.115Z,43.15
2023-03-03T16:03:27.845Z,44.10
2023-03-03T16:06:02.126Z,41.96
2023-03-03T16:08:41.406Z,40.43
2023-03-03T16:11:13.742Z,40.18
2023-03-03T16:14:01.331Z,40.82
2023-03-03T16:16:40.331Z,40.50
2023-03-03T16:19:18.158Z,42.10
2023-03-03T16:22:03.534Z,42.08
2023-03-03T16:24:42.568Z,43.85
2023-03-03T16:27:20.024Z,45.20
2023-03-03T16:30:08.034Z,46.15
2023-03-03T16:32:41.538Z,48.35
2023-03-03T16:35:22.664Z,49.37
2023-03-03T16:37:59.145Z,50.65
2023-03-03T16:40:30.766Z,50.46
2023-03-03T16:43:11.871Z,51.02
2023-03-03T16:45:41.274Z,50.64
2023-03-03T16:48:22.776Z,50.46
2023-03-03T16:51:05.122Z,51.96
2023-03-03T16:53:49.247Z,52.77
2023-03-03T16:56:22.840Z,52.24
2023-03-03T16:59:04.511Z,51.42
2023-03-03T17:01:41.550Z,51.46
2023-03-03T17:04:15.230Z,52.23
2023-03-03T17:06:50.039Z,51.52
2023-03-03T17:09:39.815Z,51.66
2023-03-03T17:12:26.453Z,52.92
2023-03-03T17:15:10.994Z,54.62
2023-03-03T17:17:45.035Z,56.05
2023-03-03T17:20:30.881Z,57.64
2023-03-03T17:23:16.094Z,59.71
2023-03-03T17:25:52.195Z,61.99
2023-03-03T17:28:33.106Z,62.05
2023-03-03T17:31:10.952Z,63.00
2023-03-03T17:33:53.266Z,63.78
2023-03-03T17:36:33.762Z,65.44
2023-03-03T17:39:13.812Z,65.43
2023-03-03T17:41:50.718Z,65.15
2023-03-03T17:44:25.388Z,65.09
2023-03-03T17:46:56.466Z,66.38
2023-03-03T17:49:42.625Z,68.62
2023-03-03T17:52:24.631Z,69.19
2023-03-03T17:55:32.827Z,71.07
2023-03-03T17:58:18.516Z,70.73
2023-03-03T18:00:59.384Z,71.73
2023-03-03T18:03:38.568Z,71.58
2023-03-03T18:06:36.684Z,72.67
2023-03-03T18:09:18.309Z,73.25
2023-03-03T18:11:57.398Z,81.44
2023-03-03T18:14:52.527Z,80.56
2023-03-03T18:17:35.345Z,77.37
2023-03-03T18:20:30.328Z,78.49
2023-03-03T18:22:57.972Z,76.37
2023-03-03T18:25:27.661Z,74.58
2023-03-03T18:28:21.992Z,74.39
2023-03-03T18:30:56.817Z,74.42
2023-03-03T18:33:43.137Z,73.46
2023-03-03T18:36:16.286Z,72.18
2023-03-03T18:38:47.583Z,72.86
2023-03-03T18:41:26.001Z,72.21
2023-03-03T18:43:57.485Z,71.44
2023-03-03T18:46:55.232Z,72.57
2023-03-03T18:50:08.442Z,74.23
2023-03-03T18:52:36.945Z,76.72
2023-03-03T18:55:24.637Z,76.10
2023-03-03T18:58:33.937Z,76.74
2023-03-03T19:01:12.962Z,77.83
2023-03-03T19:04:16.770Z,78.21
2023-03-03T19:07:18.865Z,79.07
2023-03-03T19:09:52.463Z,78.05
2023-03-03T19:12:40.419Z,76.79
2023-03-03T19:15:29.444Z,76.59
2023-03-03T19:17:59.685Z,77.24
2023-03-03T19:20:39.124Z,77.28
2023-03-03T19:23:12.136Z,76.36
2023-03-03T19:25:39.705Z,76.35
2023-03-03T19:28:33.493Z,76.49
2023-03-03T19:31:04.755Z,76.91
2023-03-03T19:33:43.678Z,76.42
2023-03-03T19:36:48.250Z,76.58
2023-03-03T19:39:34.421Z,76.09
2023-03-03T19:42:12.726Z,75.60
2023-03-03T19:44:54.241Z,75.49
2023-03-03T19:47:34.444Z,74.58
2023-03-03T19:50:16.673Z,73.81
2023-03-03T19:52:50.701Z,72.58
2023-03-03T19:55:35.539Z,73.34
2023-03-03T19:58:18.423Z,73.79
2023-03-03T20:00:48.741Z,72.88
2023-03-03T20:03:45.507Z,68.96
2023-03-03T20:06:25.920Z,67.24
2023-03-03T20:09:02.850Z,66.30
2023-03-03T20:11:55.951Z,66.98
2023-03-03T20:14:36.154Z,67.28
2023-03-03T20:17:19.019Z,66.72
2023-03-03T20:19:53.034Z,68.68
2023-03-03T20:22:29.253Z,72.65
2023-03-03T20:25:10.365Z,75.18
2023-03-03T20:27:48.050Z,74.07
2023-03-03T20:30:30.949Z,73.33
2023-03-03T20:33:17.920Z,71.35
2023-03-03T20:35:58.282Z,71.69
2023-03-03T20:38:32.893Z,72.63
2023-03-03T20:41:13.348Z,74.19
2023-03-03T20:43:55.389Z,72.71
2023-03-03T20:46:28.134Z,69.85
2023-03-03T20:49:10.941Z,70.15
2023-03-03T20:51:45.940Z,70.57
2023-03-03T20:54:24.311Z,69.25
2023-03-03T20:56:57.469Z,66.98
2023-03-03T20:59:32.928Z,64.83
2023-03-03T21:02:08.434Z,66.42
2023-03-03T21:04:36.227Z,68.18
2023-03-03T21:07:05.432Z,69.24
2023-03-03T21:09:35.100Z,69.50
2023-03-03T21:12:12.106Z,70.96
2023-03-03T21:14:39.622Z,71.40
2023-03-03T21:17:26.250Z,74.14
2023-03-03T21:19:53.699Z,72.98
2023-03-03T21:22:21.229Z,72.67
2023-03-03T21:24:50.829Z,73.18
2023-03-03T21:27:31.160Z,74.12
2023-03-03T21:30:07.928Z,74.28
2023-03-03T21:32:38.489Z,76.19
2023-03-03T21:35:08.740Z,77.77
2023-03-03T21:37:49.425Z,77.61
2023-03-03T21:40:20.860Z,77.64
2023-03-03T21:42:50.029Z,77.76
2023-03-03T21:45:20.372Z,78.41
2023-03-03T21:47:48.303Z,79.01
2023-03-03T21:50:16.611Z,78.50
2023-03-03T21:52:44.283Z,79.99
2023-03-03T21:55:11.839Z,79.28
2023-03-03T21:57:39.342Z,78.08
2023-03-03T22:00:11.601Z,78.74
2023-03-03T22:02:39.052Z,78.80
2023-03-03T22:05:07.991Z,79.01
2023-03-03T22:07:35.554Z,78.43
2023-03-03T22:10:03.073Z,77.98
2023-03-03T22:12:30.596Z,78.73
2023-03-03T22:14:58.060Z,79.31
2023-03-03T22:17:27.984Z,79.48
2023-03-03T22:19:55.621Z,80.40
2023-03-03T22:22:24.183Z,79.83
2023-03-03T22:24:51.673Z,81.60
2023-03-03T22:27:19.180Z,81.56
2023-03-03T22:29:46.670Z,80.32
2023-03-03T22:32:14.196Z,79.83
2023-03-03T22:34:43.212Z,79.59
2023-03-03T22:37:10.705Z,79.03
2023-03-03T22:39:38.186Z,79.50
2023-03-03T22:42:05.747Z,78.99
2023-03-03T22:44:33.219Z,77.94
2023-03-03T22:47:00.669Z,78.12
2023-03-03T22:49:28.238Z,79.62
2023-03-03T22:51:58.648Z,81.52
2023-03-03T22:54:26.207Z,82.54
2023-03-03T22:56:53.658Z,83.25
2023-03-03T22:59:21.118Z,84.39
2023-03-03T23:01:48.581Z,85.04
2023-03-03T23:04:16.079Z,86.74
2023-03-03T23:06:44.726Z,90.39
2023-03-03T23:09:13.570Z,89.62
2023-03-03T23:11:41.043Z,88.90
2023-03-03T23:14:08.505Z,89.26
2023-03-03T23:16:35.967Z,88.26
2023-03-03T23:19:03.456Z,89.71
2023-03-03T23:21:30.936Z,90.23
2023-03-03T23:23:58.432Z,91.93
2023-03-03T23:26:27.298Z,90.37
2023-03-03T23:28:54.824Z,88.65
2023-03-03T23:31:22.364Z,88.38
2023-03-03T23:33:49.872Z,87.98
2023-03-03T23:36:17.387Z,87.97
2023-03-03T23:38:44.855Z,90.13
2023-03-03T23:41:12.330Z,91.11
2023-03-03T23:43:41.098Z,91.83
2023-03-03T23:46:08.977Z,91.56
2023-03-03T23:48:36.485Z,90.35
2023-03-03T23:51:04.013Z,89.77
2023-03-03T23:53:31.483Z,88.43
2023-03-03T23:55:58.958Z,88.17
2023-03-03T23:58:26.439Z,88.13
